createdAt,value
2018-05-21T00:00:12.378Z,3.63
2018-05-21T00:02:42.163Z,4.20
2018-05-21T00:05:11.881Z,4.00
2018-05-21T00:07:42.416Z,4.50
2018-05-21T00:10:13.063Z,3.73
2018-05-21T00:12:42.807Z,4.10
2018-05-21T00:15:12.644Z,3.63
2018-05-21T00:17:42.453Z,3.93
2018-05-21T00:20:12.407Z,4.17
2018-05-21T00:22:42.259Z,3.80
2018-05-21T00:25:12.123Z,3.90
2018-05-21T00:27:41.907Z,4.13
2018-05-21T00:30:11.628Z,4.00
2018-05-21T00:32:41.424Z,4.00
2018-05-21T00:35:11.463Z,4.03
2018-05-21T00:37:42.253Z,3.60
2018-05-21T00:40:12.286Z,4.03
2018-05-21T00:42:42.359Z,4.07
2018-05-21T00:45:12.627Z,4.10
2018-05-21T00:47:43.052Z,3.87
2018-05-21T00:50:12.777Z,3.90
2018-05-21T00:52:42.450Z,4.43
2018-05-21T00:55:23.760Z,4.30
2018-05-21T00:57:54.063Z,4.70
2018-05-21T01:00:24.808Z,4.10
2018-05-21T01:02:55.162Z,3.77
2018-05-21T01:05:25.512Z,4.00
2018-05-21T01:07:56.634Z,4.07
2018-05-21T01:10:26.780Z,4.23
2018-05-21T01:12:57.057Z,3.90
2018-05-21T01:15:27.659Z,3.83
2018-05-21T01:17:58.624Z,4.50
2018-05-21T01:20:30.106Z,3.57
2018-05-21T01:23:00.852Z,3.77
2018-05-21T01:25:32.185Z,4.10
2018-05-21T01:28:04.855Z,4.03
2018-05-21T01:30:35.343Z,4.10
2018-05-21T01:33:06.194Z,4.30
2018-05-21T01:35:36.559Z,4.30
2018-05-21T01:38:07.056Z,4.03
2018-05-21T01:40:37.186Z,3.77
2018-05-21T01:43:07.616Z,3.50
2018-05-21T01:45:37.766Z,3.60
2018-05-21T01:48:08.756Z,3.90
2018-05-21T01:50:39.076Z,4.00
2018-05-21T01:53:09.406Z,4.47
2018-05-21T01:55:40.032Z,4.53
2018-05-21T01:58:10.269Z,4.07
2018-05-21T02:00:40.949Z,4.23
2018-05-21T02:03:11.537Z,4.70
2018-05-21T02:05:42.041Z,5.00
2018-05-21T02:08:13.226Z,4.23
2018-05-21T02:10:44.278Z,4.60
2018-05-21T02:13:14.544Z,5.10
2018-05-21T02:15:44.702Z,4.60
2018-05-21T02:18:15.457Z,4.20
2018-05-21T02:23:24.093Z,4.47
2018-05-21T02:25:55.235Z,4.30
2018-05-21T02:28:27.674Z,3.87
2018-05-21T02:30:58.250Z,3.67
2018-05-21T02:33:29.798Z,3.30
2018-05-21T02:36:00.732Z,3.60
2018-05-21T02:38:31.955Z,3.33
2018-05-21T02:41:02.079Z,3.20
2018-05-21T02:43:32.171Z,3.20
2018-05-21T02:46:02.505Z,3.40
2018-05-21T02:48:32.817Z,3.03
2018-05-21T02:51:02.950Z,3.10
2018-05-21T02:53:32.864Z,3.20
2018-05-21T02:56:03.430Z,3.10
2018-05-21T02:58:34.654Z,3.17
2018-05-21T03:01:05.142Z,3.00
2018-05-21T03:03:35.702Z,3.00
2018-05-21T03:06:05.547Z,3.30
2018-05-21T03:08:35.470Z,3.03
2018-05-21T03:11:06.681Z,3.47
2018-05-21T03:13:37.159Z,3.03
2018-05-21T03:16:07.553Z,3.53
2018-05-21T03:18:37.943Z,2.90
2018-05-21T03:21:09.100Z,3.13
2018-05-21T03:23:39.364Z,2.80
2018-05-21T03:26:09.861Z,2.70
2018-05-21T03:28:41.020Z,3.00
2018-05-21T03:31:11.518Z,2.83
2018-05-21T03:33:41.901Z,2.63
2018-05-21T03:36:12.200Z,2.90
2018-05-21T03:38:42.414Z,2.90
2018-05-21T03:41:12.535Z,3.13
2018-05-21T03:43:42.740Z,2.83
2018-05-21T03:46:12.997Z,2.70
2018-05-21T03:48:43.839Z,2.97
2018-05-21T03:51:14.622Z,3.20
2018-05-21T03:53:45.081Z,2.90
2018-05-21T03:56:21.818Z,3.20
2018-05-21T03:59:03.334Z,3.30
2018-05-21T04:01:57.546Z,3.23
2018-05-21T04:04:28.573Z,3.40
2018-05-21T04:06:58.996Z,3.07
2018-05-21T04:09:30.168Z,3.57
2018-05-21T04:12:00.686Z,3.20
2018-05-21T04:14:32.027Z,2.90
2018-05-21T04:17:02.278Z,3.83
2018-05-21T04:19:33.485Z,3.87
2018-05-21T04:22:03.901Z,3.40
2018-05-21T04:24:34.142Z,2.90
2018-05-21T04:27:04.689Z,2.93
2018-05-21T04:29:35.823Z,3.30
2018-05-21T04:32:06.319Z,3.07
2018-05-21T04:34:36.474Z,3.07
2018-05-21T04:37:07.807Z,3.23
2018-05-21T04:39:37.921Z,3.20
2018-05-21T04:42:08.324Z,3.20
2018-05-21T04:44:38.717Z,3.43
2018-05-21T04:47:09.673Z,2.90
2018-05-21T04:49:39.760Z,3.07
2018-05-21T04:52:13.823Z,3.30
2018-05-21T04:54:44.848Z,3.20
2018-05-21T04:57:15.005Z,2.90
2018-05-21T04:59:45.104Z,2.87
2018-05-21T05:02:15.541Z,3.07
2018-05-21T05:04:45.633Z,3.47
2018-05-21T05:07:16.228Z,3.33
2018-05-21T05:09:47.274Z,3.10
2018-05-21T05:12:17.550Z,2.90
2018-05-21T05:14:48.280Z,3.50
2018-05-21T05:17:19.143Z,2.80
2018-05-21T05:19:51.208Z,3.20
2018-05-21T05:22:22.582Z,3.43
2018-05-21T05:24:53.196Z,3.13
2018-05-21T05:27:23.842Z,3.33
2018-05-21T05:29:55.784Z,3.03
2018-05-21T05:32:27.051Z,3.13
2018-05-21T05:34:57.933Z,2.97
2018-05-21T05:37:28.459Z,2.60
2018-05-21T05:39:58.849Z,3.10
2018-05-21T05:42:30.047Z,2.90
2018-05-21T05:45:00.802Z,3.00
2018-05-21T05:47:31.851Z,2.70
2018-05-21T05:50:03.916Z,3.10
2018-05-21T05:52:35.142Z,2.87
2018-05-21T05:55:05.622Z,2.83
2018-05-21T05:57:37.143Z,2.87
2018-05-21T06:00:08.761Z,3.37
2018-05-21T06:02:39.067Z,2.77
2018-05-21T06:05:10.051Z,3.17
2018-05-21T06:07:40.078Z,2.87
2018-05-21T06:10:10.201Z,2.73
2018-05-21T06:12:40.492Z,2.97
2018-05-21T06:15:11.131Z,2.67
2018-05-21T06:17:41.394Z,2.67
2018-05-21T06:20:11.710Z,3.30
2018-05-21T06:22:41.729Z,3.13
2018-05-21T06:25:12.424Z,2.77
2018-05-21T06:27:42.635Z,2.87
2018-05-21T06:30:13.200Z,2.77
2018-05-21T06:32:43.572Z,3.30
2018-05-21T06:35:14.938Z,3.33
2018-05-21T06:37:45.775Z,2.97
2018-05-21T06:40:16.395Z,3.10
2018-05-21T06:42:46.258Z,2.90
2018-05-21T06:45:16.961Z,2.80
2018-05-21T06:47:47.567Z,2.83
2018-05-21T06:50:18.359Z,2.97
2018-05-21T06:52:48.910Z,3.03
2018-05-21T06:55:19.715Z,2.73
2018-05-21T06:57:50.656Z,2.67
2018-05-21T07:00:21.489Z,2.60
2018-05-21T07:02:52.109Z,2.63
2018-05-21T07:05:22.631Z,2.67
2018-05-21T07:07:53.399Z,2.60
2018-05-21T07:10:24.863Z,2.67
2018-05-21T07:12:55.248Z,2.87
2018-05-21T07:15:27.081Z,2.90
2018-05-21T07:17:57.742Z,2.50
2018-05-21T07:20:28.385Z,2.83
2018-05-21T07:22:58.878Z,2.67
2018-05-21T07:25:29.257Z,2.53
2018-05-21T07:27:59.853Z,2.90
2018-05-21T07:30:30.784Z,3.00
2018-05-21T07:33:01.734Z,2.70
2018-05-21T07:35:32.498Z,2.77
2018-05-21T07:38:03.464Z,2.67
2018-05-21T07:40:33.447Z,3.00
2018-05-21T07:43:03.664Z,3.00
2018-05-21T07:45:33.823Z,2.73
2018-05-21T07:48:03.770Z,2.77
2018-05-21T07:50:34.254Z,2.63
2018-05-21T07:53:04.654Z,3.00
2018-05-21T07:55:34.961Z,2.60
2018-05-21T07:58:05.320Z,3.03
2018-05-21T08:00:35.608Z,2.43
2018-05-21T08:03:06.136Z,2.40
2018-05-21T08:05:36.956Z,2.97
2018-05-21T08:08:08.164Z,3.23
2018-05-21T08:10:39.177Z,2.47
2018-05-21T08:13:09.392Z,2.77
2018-05-21T08:15:39.367Z,3.00
2018-05-21T08:18:10.474Z,3.10
2018-05-21T08:20:40.733Z,2.40
2018-05-21T08:23:11.707Z,2.90
2018-05-21T08:25:41.938Z,3.37
2018-05-21T08:28:12.674Z,3.00
2018-05-21T08:30:43.142Z,3.03
2018-05-21T08:33:13.428Z,2.60
2018-05-21T08:35:43.966Z,2.67
2018-05-21T08:38:14.111Z,2.73
2018-05-21T08:40:44.524Z,2.30
2018-05-21T08:43:15.592Z,2.93
2018-05-21T08:45:45.491Z,2.73
2018-05-21T08:48:15.871Z,3.50
2018-05-21T08:50:46.321Z,2.37
2018-05-21T08:53:16.081Z,2.70
2018-05-21T08:55:47.182Z,3.00
2018-05-21T08:58:17.293Z,3.10
2018-05-21T09:00:47.722Z,3.07
2018-05-21T09:03:18.357Z,3.30
2018-05-21T09:05:48.600Z,3.30
2018-05-21T09:08:19.104Z,3.40
2018-05-21T09:10:49.247Z,3.50
2018-05-21T09:13:19.843Z,3.60
2018-05-21T09:15:50.297Z,3.43
2018-05-21T09:18:20.919Z,3.33
2018-05-21T09:20:51.267Z,3.03
2018-05-21T09:23:22.229Z,3.43
2018-05-21T09:25:54.148Z,3.17
2018-05-21T09:28:25.182Z,2.97
2018-05-21T09:30:55.406Z,3.00
2018-05-21T09:33:25.527Z,3.10
2018-05-21T09:35:55.825Z,3.73
2018-05-21T09:38:25.971Z,3.10
2018-05-21T09:40:56.174Z,2.90
2018-05-21T09:43:26.403Z,3.70
2018-05-21T09:45:56.835Z,3.37
2018-05-21T09:48:27.280Z,3.10
2018-05-21T09:50:57.478Z,3.50
2018-05-21T09:53:27.607Z,3.53
2018-05-21T09:55:58.751Z,3.23
2018-05-21T09:58:29.069Z,3.53
2018-05-21T10:00:59.392Z,3.00
2018-05-21T10:03:29.618Z,3.83
2018-05-21T10:06:00.054Z,3.37
2018-05-21T10:08:29.994Z,3.13
2018-05-21T10:11:00.400Z,3.73
2018-05-21T10:13:30.859Z,3.30
2018-05-21T10:16:01.269Z,3.60
2018-05-21T10:18:31.279Z,3.93
2018-05-21T10:21:01.282Z,3.20
2018-05-21T10:23:31.797Z,3.30
2018-05-21T10:26:02.926Z,3.50
2018-05-21T10:28:33.001Z,3.43
2018-05-21T10:31:02.973Z,3.37
2018-05-21T10:33:33.307Z,3.37
2018-05-21T10:36:03.634Z,2.87
2018-05-21T10:38:33.741Z,3.17
2018-05-21T10:41:04.186Z,3.00
2018-05-21T10:43:34.559Z,3.17
2018-05-21T10:46:04.740Z,2.90
2018-05-21T10:48:34.767Z,2.63
2018-05-21T10:51:04.849Z,2.77
2018-05-21T10:53:35.689Z,3.40
2018-05-21T10:56:06.384Z,2.77
2018-05-21T10:58:37.465Z,2.97
2018-05-21T11:01:07.810Z,3.03
2018-05-21T11:03:38.848Z,2.70
2018-05-21T11:06:09.172Z,2.70
2018-05-21T11:08:39.303Z,3.20
2018-05-21T11:11:09.619Z,2.97
2018-05-21T11:13:39.867Z,2.90
2018-05-21T11:16:10.898Z,3.37
2018-05-21T11:18:41.215Z,3.00
2018-05-21T11:21:11.349Z,3.17
2018-05-21T11:23:41.746Z,3.17
2018-05-21T11:26:11.944Z,2.97
2018-05-21T11:28:42.395Z,3.10
2018-05-21T11:31:12.627Z,2.70
2018-05-21T11:33:42.947Z,3.33
2018-05-21T11:36:13.373Z,2.80
2018-05-21T11:38:43.897Z,2.67
2018-05-21T11:41:13.912Z,3.63
2018-05-21T11:43:44.254Z,3.00
2018-05-21T11:46:14.629Z,2.97
2018-05-21T11:48:45.504Z,2.50
2018-05-21T11:51:15.930Z,2.90
2018-05-21T11:53:46.290Z,2.77
2018-05-21T11:56:16.614Z,2.73
2018-05-21T11:58:47.004Z,2.80
2018-05-21T12:01:17.325Z,2.97
2018-05-21T12:03:47.671Z,2.80
2018-05-21T12:06:18.209Z,2.83
2018-05-21T12:08:48.582Z,2.70
2018-05-21T12:11:19.035Z,2.50
2018-05-21T12:13:49.492Z,3.03
2018-05-21T12:16:19.883Z,2.93
2018-05-21T12:18:50.144Z,3.00
2018-05-21T12:21:20.694Z,2.90
2018-05-21T12:23:51.112Z,3.03
2018-05-21T12:26:21.725Z,2.57
2018-05-21T12:28:51.958Z,2.70
2018-05-21T12:31:22.979Z,2.80
2018-05-21T12:33:53.757Z,2.60
2018-05-21T12:36:25.204Z,2.60
2018-05-21T12:38:56.005Z,3.63
2018-05-21T12:41:26.748Z,2.40
2018-05-21T12:43:58.053Z,2.47
2018-05-21T12:46:29.084Z,2.63
2018-05-21T12:49:00.487Z,2.70
2018-05-21T12:51:31.024Z,2.50
2018-05-21T12:54:01.835Z,2.60
2018-05-21T12:56:32.689Z,2.80
2018-05-21T12:59:02.922Z,2.50
2018-05-21T13:01:33.332Z,2.53
2018-05-21T13:04:03.573Z,2.50
2018-05-21T13:06:36.950Z,2.87
2018-05-21T13:09:07.306Z,2.70
2018-05-21T13:11:37.418Z,2.70
2018-05-21T13:14:07.697Z,3.27
2018-05-21T13:16:38.562Z,2.60
2018-05-21T13:19:08.733Z,2.40
2018-05-21T13:21:39.268Z,2.80
2018-05-21T13:24:09.561Z,2.60
2018-05-21T13:26:40.159Z,2.70
2018-05-21T13:29:10.287Z,2.63
2018-05-21T13:31:40.594Z,2.13
2018-05-21T13:34:11.015Z,2.83
2018-05-21T13:36:41.657Z,2.70
2018-05-21T13:39:12.306Z,2.63
2018-05-21T13:41:43.244Z,2.57
2018-05-21T13:44:13.912Z,3.03
2018-05-21T13:46:45.332Z,2.70
2018-05-21T13:49:15.773Z,2.73
2018-05-21T13:51:46.174Z,2.50
2018-05-21T13:54:16.477Z,2.40
2018-05-21T13:56:46.647Z,2.33
2018-05-21T13:59:16.725Z,2.93
2018-05-21T14:01:47.001Z,2.67
2018-05-21T14:04:17.800Z,2.80
2018-05-21T14:06:48.339Z,2.33
2018-05-21T14:09:18.770Z,2.60
2018-05-21T14:11:48.912Z,2.27
2018-05-21T14:14:19.745Z,2.57
2018-05-21T14:16:50.662Z,2.40
2018-05-21T14:19:20.874Z,2.40
2018-05-21T14:21:51.108Z,2.20
2018-05-21T14:24:21.322Z,2.47
2018-05-21T14:26:51.527Z,2.10
2018-05-21T14:29:21.885Z,2.57
2018-05-21T14:31:51.892Z,2.33
2018-05-21T14:34:21.916Z,2.20
2018-05-21T14:36:52.287Z,1.90
2018-05-21T14:39:22.460Z,2.57
2018-05-21T14:41:52.457Z,2.20
2018-05-21T14:44:23.291Z,2.40
2018-05-21T14:46:53.598Z,2.40
2018-05-21T14:49:23.956Z,2.17
2018-05-21T14:51:54.568Z,2.80
2018-05-21T14:54:24.588Z,2.27
2018-05-21T14:56:54.826Z,2.23
2018-05-21T14:59:25.128Z,2.40
2018-05-21T15:01:55.585Z,3.77
2018-05-21T15:04:25.641Z,2.80
2018-05-21T15:06:56.014Z,2.87
2018-05-21T15:09:26.110Z,2.77
2018-05-21T15:11:56.479Z,2.63
2018-05-21T15:14:27.494Z,2.40
2018-05-21T15:16:57.684Z,2.53
2018-05-21T15:19:28.044Z,2.40
2018-05-21T15:21:57.963Z,2.87
2018-05-21T15:24:28.252Z,2.83
2018-05-21T15:26:58.379Z,2.37
2018-05-21T15:29:28.704Z,2.63
2018-05-21T15:31:58.855Z,2.50
2018-05-21T15:34:29.275Z,2.30
2018-05-21T15:36:59.600Z,2.23
2018-05-21T15:39:29.963Z,2.93
2018-05-21T15:42:01.475Z,2.67
2018-05-21T15:44:31.707Z,2.53
2018-05-21T15:47:02.094Z,2.63
2018-05-21T15:49:32.250Z,2.33
2018-05-21T15:52:02.687Z,2.60
2018-05-21T15:54:32.791Z,2.70
2018-05-21T15:57:03.563Z,2.40
2018-05-21T15:59:33.458Z,2.90
2018-05-21T16:02:03.842Z,2.30
2018-05-21T16:04:34.382Z,2.83
2018-05-21T16:07:04.483Z,2.43
2018-05-21T16:09:34.390Z,2.77
2018-05-21T16:12:04.856Z,2.97
2018-05-21T16:14:35.193Z,2.33
2018-05-21T16:17:05.217Z,2.53
2018-05-21T16:19:35.623Z,3.50
2018-05-21T16:22:06.351Z,2.93
2018-05-21T16:24:36.705Z,3.17
2018-05-21T16:27:07.128Z,2.70
2018-05-21T16:29:37.649Z,2.90
2018-05-21T16:32:08.915Z,2.90
2018-05-21T16:34:39.126Z,4.07
2018-05-21T16:37:09.212Z,4.03
2018-05-21T16:39:39.279Z,3.53
2018-05-21T16:42:09.644Z,3.70
2018-05-21T16:44:40.218Z,3.30
2018-05-21T16:47:10.524Z,3.53
2018-05-21T16:49:40.760Z,3.13
2018-05-21T16:52:10.876Z,3.20
2018-05-21T16:54:41.368Z,2.97
2018-05-21T16:57:11.615Z,3.10
2018-05-21T16:59:41.960Z,3.13
2018-05-21T17:02:12.384Z,3.43
2018-05-21T17:04:44.024Z,3.10
2018-05-21T17:07:14.547Z,3.77
2018-05-21T17:09:45.809Z,3.80
2018-05-21T17:12:16.121Z,3.40
2018-05-21T17:14:46.583Z,3.00
2018-05-21T17:17:17.080Z,3.97
2018-05-21T17:19:47.511Z,3.27
2018-05-21T17:22:17.920Z,2.87
2018-05-21T17:24:48.571Z,3.23
2018-05-21T17:27:18.554Z,3.20
2018-05-21T17:29:48.262Z,3.10
2018-05-21T17:32:21.136Z,2.83
2018-05-21T17:34:53.186Z,3.10
2018-05-21T17:37:25.010Z,3.10
2018-05-21T17:39:55.548Z,3.23
2018-05-21T17:42:26.219Z,3.03
2018-05-21T17:44:56.668Z,3.17
2018-05-21T17:47:27.056Z,3.43
2018-05-21T17:49:57.158Z,2.87
2018-05-21T17:52:27.577Z,3.13
2018-05-21T17:55:00.496Z,3.57
2018-05-21T17:57:31.265Z,2.93
2018-05-21T18:00:02.591Z,3.10
2018-05-21T18:02:33.318Z,2.90
2018-05-21T18:05:03.931Z,3.50
2018-05-21T18:07:35.688Z,3.30
2018-05-21T18:10:06.137Z,3.93
2018-05-21T18:12:36.935Z,2.80
2018-05-21T18:15:07.090Z,3.00
2018-05-21T18:17:38.227Z,3.10
2018-05-21T18:20:09.356Z,3.20
2018-05-21T18:22:39.588Z,3.40
2018-05-21T18:25:12.355Z,3.27
2018-05-21T18:27:42.439Z,3.33
2018-05-21T18:30:12.856Z,3.43
2018-05-21T18:32:43.214Z,3.53
2018-05-21T18:35:13.538Z,3.67
2018-05-21T18:37:43.966Z,3.40
2018-05-21T18:40:14.386Z,3.67
2018-05-21T18:42:45.147Z,3.70
2018-05-21T18:45:16.979Z,3.10
2018-05-21T18:47:47.235Z,3.20
2018-05-21T18:50:17.968Z,3.53
2018-05-21T18:52:48.252Z,3.43
2018-05-21T18:55:18.478Z,3.83
2018-05-21T18:57:48.934Z,2.77
2018-05-21T19:00:19.553Z,2.97
2018-05-21T19:02:49.975Z,2.70
2018-05-21T19:05:19.878Z,3.30
2018-05-21T19:07:55.746Z,3.20
2018-05-21T19:10:27.089Z,2.77
2018-05-21T19:12:57.928Z,3.00
2018-05-21T19:15:28.560Z,3.40
2018-05-21T19:17:59.071Z,2.90
2018-05-21T19:20:29.097Z,3.00
2018-05-21T19:22:59.115Z,3.37
2018-05-21T19:25:29.335Z,3.23
2018-05-21T19:27:59.458Z,3.03
2018-05-21T19:30:29.799Z,3.03
2018-05-21T19:32:59.998Z,3.50
2018-05-21T19:35:30.275Z,2.77
2018-05-21T19:38:00.370Z,3.50
2018-05-21T19:40:30.344Z,3.30
2018-05-21T19:43:00.584Z,2.90
2018-05-21T19:45:30.705Z,2.90
2018-05-21T19:48:01.051Z,3.17
2018-05-21T19:50:31.167Z,3.00
2018-05-21T19:53:01.316Z,3.03
2018-05-21T19:55:31.382Z,3.10
2018-05-21T19:58:01.610Z,3.10
2018-05-21T20:00:31.951Z,3.10
2018-05-21T20:03:02.287Z,3.60
2018-05-21T20:05:32.405Z,3.00
2018-05-21T20:08:02.700Z,3.23
2018-05-21T20:10:32.869Z,3.37
2018-05-21T20:13:03.187Z,3.57
2018-05-21T20:15:33.675Z,3.27
2018-05-21T20:18:04.211Z,2.80
2018-05-21T20:20:45.076Z,2.70
2018-05-21T20:23:15.523Z,2.97
2018-05-21T20:25:45.763Z,2.53
2018-05-21T20:28:15.982Z,3.30
2018-05-21T20:30:46.291Z,3.30
2018-05-21T20:33:17.632Z,3.10
2018-05-21T20:35:47.864Z,3.00
2018-05-21T20:38:18.296Z,2.73
2018-05-21T20:40:48.447Z,2.50
2018-05-21T20:43:18.938Z,3.00
2018-05-21T20:45:49.216Z,2.90
2018-05-21T20:48:20.147Z,3.40
2018-05-21T20:50:51.374Z,2.87
2018-05-21T20:53:22.071Z,2.97
2018-05-21T20:55:52.389Z,2.63
2018-05-21T20:58:23.295Z,2.57
2018-05-21T21:00:54.720Z,2.77
2018-05-21T21:03:25.128Z,2.90
2018-05-21T21:05:55.433Z,2.63
2018-05-21T21:08:25.780Z,2.90
2018-05-21T21:10:57.131Z,2.50
2018-05-21T21:13:27.323Z,2.83
2018-05-21T21:15:57.463Z,2.87
2018-05-21T21:18:27.807Z,2.60
2018-05-21T21:20:58.034Z,2.67
2018-05-21T21:23:28.149Z,2.43
2018-05-21T21:25:58.602Z,2.83
2018-05-21T21:28:29.500Z,2.57
2018-05-21T21:30:59.741Z,2.33
2018-05-21T21:33:30.063Z,2.67
2018-05-21T21:36:00.221Z,2.47
2018-05-21T21:38:30.635Z,2.60
2018-05-21T21:41:01.221Z,2.43
2018-05-21T21:43:31.789Z,2.40
2018-05-21T21:46:01.584Z,2.73
2018-05-21T21:48:31.284Z,2.57
2018-05-21T21:51:01.019Z,2.70
2018-05-21T21:53:30.743Z,2.40
2018-05-21T21:56:01.298Z,2.63
2018-05-21T21:58:32.405Z,2.27
2018-05-21T22:01:03.447Z,2.43
2018-05-21T22:03:33.191Z,2.37
2018-05-21T22:06:02.976Z,2.70
2018-05-21T22:08:33.475Z,2.57
2018-05-21T22:11:03.685Z,2.30
2018-05-21T22:13:34.317Z,2.57
2018-05-21T22:16:05.285Z,2.60
2018-05-21T22:18:35.572Z,2.60
2018-05-21T22:21:05.909Z,2.50
2018-05-21T22:23:36.313Z,2.50
2018-05-21T22:26:06.846Z,2.37
2018-05-21T22:28:37.287Z,2.63
2018-05-21T22:31:07.525Z,2.17
2018-05-21T22:33:37.834Z,2.67
2018-05-21T22:36:08.235Z,2.33
2018-05-21T22:38:38.500Z,2.47
2018-05-21T22:41:09.237Z,2.37
2018-05-21T22:43:39.767Z,2.50
2018-05-21T22:46:10.825Z,2.07
2018-05-21T22:48:41.814Z,2.27
2018-05-21T22:51:12.490Z,2.60
2018-05-21T22:53:42.766Z,2.13
2018-05-21T22:56:13.420Z,2.13
2018-05-21T22:58:43.543Z,2.10
2018-05-21T23:01:14.755Z,2.10
2018-05-21T23:03:45.281Z,2.30
2018-05-21T23:06:15.571Z,2.40
2018-05-21T23:08:45.632Z,2.30
2018-05-21T23:11:15.799Z,2.30
2018-05-21T23:13:46.001Z,2.60
2018-05-21T23:16:16.155Z,2.60
2018-05-21T23:18:46.739Z,1.80
2018-05-21T23:21:17.488Z,2.47
2018-05-21T23:23:47.921Z,2.47
2018-05-21T23:26:19.299Z,2.30
2018-05-21T23:28:50.899Z,2.00
2018-05-21T23:31:21.091Z,2.17
2018-05-21T23:33:52.285Z,2.30
2018-05-21T23:36:22.833Z,2.50
2018-05-21T23:38:53.795Z,2.13
2018-05-21T23:41:26.969Z,2.33
2018-05-21T23:43:57.713Z,2.20
2018-05-21T23:46:29.025Z,2.03
2018-05-21T23:48:59.230Z,2.13
2018-05-21T23:51:29.638Z,2.03
2018-05-21T23:54:01.033Z,2.10
2018-05-21T23:56:31.340Z,2.40
2018-05-21T23:59:01.674Z,1.93
